sensor_id;sensor_type;location;lat;lon;timestamp;P1;durP1;ratioP1;P2;durP2;ratioP2
69542;SDS011;56762;49.494;11.768;2023-04-01T00:01:12;3.25;;;0.40;;
69542;SDS011;56762;49.494;11.768;2023-04-01T00:03:41;3.58;;;0.50;;
69542;SDS011;56762;49.494;11.768;2023-04-01T00:06:09;3.13;;;0.50;;
69542;SDS011;56762;49.494;11.768;2023-04-01T00:08:40;2.47;;;0.17;;
69542;SDS011;56762;49.494;11.768;2023-04-01T00:11:08;3.10;;;0.30;;
69542;SDS011;56762;49.494;11.768;2023-04-01T00:13:38;3.13;;;0.30;;
69542;SDS011;56762;49.494;11.768;2023-04-01T00:16:05;3.40;;;0.20;;
69542;SDS011;56762;49.494;11.768;2023-04-01T00:18:46;2.17;;;0.20;;
69542;SDS011;56762;49.494;11.768;2023-04-01T00:21:15;4.90;;;0.47;;
69542;SDS011;56762;49.494;11.768;2023-04-01T00:23:43;2.15;;;0.10;;
69542;SDS011;56762;49.494;11.768;2023-04-01T00:26:11;2.03;;;0.15;;
69542;SDS011;56762;49.494;11.768;2023-04-01T00:28:41;2.47;;;0.17;;
69542;SDS011;56762;49.494;11.768;2023-04-01T00:31:09;2.25;;;0.20;;
69542;SDS011;56762;49.494;11.768;2023-04-01T00:33:38;2.80;;;0.50;;
69542;SDS011;56762;49.494;11.768;2023-04-01T00:36:09;1.58;;;0.15;;
69542;SDS011;56762;49.494;11.768;2023-04-01T00:38:37;2.70;;;0.28;;
69542;SDS011;56762;49.494;11.768;2023-04-01T00:41:06;2.13;;;0.17;;
69542;SDS011;56762;49.494;11.768;2023-04-01T00:43:35;3.72;;;0.10;;
69542;SDS011;56762;49.494;11.768;2023-04-01T00:46:04;1.77;;;0.10;;
69542;SDS011;56762;49.494;11.768;2023-04-01T00:48:33;0.95;;;0.10;;
69542;SDS011;56762;49.494;11.768;2023-04-01T00:51:04;2.40;;;0.10;;
69542;SDS011;56762;49.494;11.768;2023-04-01T00:53:36;1.55;;;0.15;;
69542;SDS011;56762;49.494;11.768;2023-04-01T00:56:09;3.25;;;0.20;;
69542;SDS011;56762;49.494;11.768;2023-04-01T00:58:41;3.23;;;0.20;;
69542;SDS011;56762;49.494;11.768;2023-04-01T01:01:12;1.33;;;0.20;;
69542;SDS011;56762;49.494;11.768;2023-04-01T01:03:41;3.22;;;0.25;;
69542;SDS011;56762;49.494;11.768;2023-04-01T01:06:15;1.33;;;0.20;;
69542;SDS011;56762;49.494;11.768;2023-04-01T01:08:59;3.00;;;0.10;;
69542;SDS011;56762;49.494;11.768;2023-04-01T01:11:41;1.27;;;0.17;;
69542;SDS011;56762;49.494;11.768;2023-04-01T01:14:14;3.28;;;0.25;;
69542;SDS011;56762;49.494;11.768;2023-04-01T01:16:54;3.13;;;0.30;;
69542;SDS011;56762;49.494;11.768;2023-04-01T01:19:33;0.70;;;0.08;;
69542;SDS011;56762;49.494;11.768;2023-04-01T01:22:19;1.48;;;0.35;;
69542;SDS011;56762;49.494;11.768;2023-04-01T01:25:03;3.43;;;0.20;;
69542;SDS011;56762;49.494;11.768;2023-04-01T01:27:40;1.38;;;0.20;;
69542;SDS011;56762;49.494;11.768;2023-04-01T01:30:25;2.42;;;0.10;;
69542;SDS011;56762;49.494;11.768;2023-04-01T01:33:07;0.90;;;0.10;;
69542;SDS011;56762;49.494;11.768;2023-04-01T01:36:05;0.73;;;0.10;;
69542;SDS011;56762;49.494;11.768;2023-04-01T01:38:36;1.33;;;0.33;;
69542;SDS011;56762;49.494;11.768;2023-04-01T01:41:05;2.40;;;0.17;;
69542;SDS011;56762;49.494;11.768;2023-04-01T01:43:35;2.00;;;0.10;;
69542;SDS011;56762;49.494;11.768;2023-04-01T01:46:06;2.53;;;0.10;;
69542;SDS011;56762;49.494;11.768;2023-04-01T01:48:38;2.55;;;0.50;;
69542;SDS011;56762;49.494;11.768;2023-04-01T01:51:10;1.53;;;0.13;;
69542;SDS011;56762;49.494;11.768;2023-04-01T01:53:38;1.55;;;0.10;;
69542;SDS011;56762;49.494;11.768;2023-04-01T01:56:06;1.75;;;0.10;;
69542;SDS011;56762;49.494;11.768;2023-04-01T01:58:35;2.08;;;0.10;;
69542;SDS011;56762;49.494;11.768;2023-04-01T02:01:08;1.40;;;0.10;;
69542;SDS011;56762;49.494;11.768;2023-04-01T02:03:39;1.10;;;0.10;;
69542;SDS011;56762;49.494;11.768;2023-04-01T02:06:11;2.88;;;0.20;;
69542;SDS011;56762;49.494;11.768;2023-04-01T02:08:43;1.42;;;0.10;;
69542;SDS011;56762;49.494;11.768;2023-04-01T02:11:15;3.15;;;0.20;;
69542;SDS011;56762;49.494;11.768;2023-04-01T02:13:47;1.50;;;0.10;;
69542;SDS011;56762;49.494;11.768;2023-04-01T02:16:20;2.30;;;0.20;;
69542;SDS011;56762;49.494;11.768;2023-04-01T02:18:53;2.15;;;0.10;;
69542;SDS011;56762;49.494;11.768;2023-04-01T02:21:24;1.42;;;0.20;;
69542;SDS011;56762;49.494;11.768;2023-04-01T02:23:57;1.23;;;0.10;;
69542;SDS011;56762;49.494;11.768;2023-04-01T02:26:28;1.65;;;0.20;;
69542;SDS011;56762;49.494;11.768;2023-04-01T02:28:56;1.97;;;0.13;;
69542;SDS011;56762;49.494;11.768;2023-04-01T02:31:26;2.13;;;0.05;;
69542;SDS011;56762;49.494;11.768;2023-04-01T02:33:55;2.00;;;0.10;;
69542;SDS011;56762;49.494;11.768;2023-04-01T02:36:25;1.05;;;0.28;;
69542;SDS011;56762;49.494;11.768;2023-04-01T02:38:53;3.75;;;0.13;;
69542;SDS011;56762;49.494;11.768;2023-04-01T02:41:25;2.43;;;0.10;;
69542;SDS011;56762;49.494;11.768;2023-04-01T02:43:53;1.90;;;0.10;;
69542;SDS011;56762;49.494;11.768;2023-04-01T02:46:21;2.80;;;0.10;;
69542;SDS011;56762;49.494;11.768;2023-04-01T02:48:49;0.30;;;0.00;;
69542;SDS011;56762;49.494;11.768;2023-04-01T02:51:16;0.95;;;0.20;;
69542;SDS011;56762;49.494;11.768;2023-04-01T02:53:45;2.30;;;0.00;;
69542;SDS011;56762;49.494;11.768;2023-04-01T02:56:13;1.80;;;0.10;;
69542;SDS011;56762;49.494;11.768;2023-04-01T02:58:41;1.02;;;0.10;;
69542;SDS011;56762;49.494;11.768;2023-04-01T03:01:09;1.85;;;0.20;;
69542;SDS011;56762;49.494;11.768;2023-04-01T03:03:38;1.13;;;0.00;;
69542;SDS011;56762;49.494;11.768;2023-04-01T03:06:06;2.03;;;0.10;;
69542;SDS011;56762;49.494;11.768;2023-04-01T03:08:34;0.77;;;0.10;;
69542;SDS011;56762;49.494;11.768;2023-04-01T03:11:03;2.10;;;0.20;;
69542;SDS011;56762;49.494;11.768;2023-04-01T03:13:32;1.10;;;0.10;;
69542;SDS011;56762;49.494;11.768;2023-04-01T03:16:00;1.88;;;0.10;;
69542;SDS011;56762;49.494;11.768;2023-04-01T03:18:28;2.53;;;0.10;;
69542;SDS011;56762;49.494;11.768;2023-04-01T03:20:56;0.60;;;0.00;;
69542;SDS011;56762;49.494;11.768;2023-04-01T03:23:24;1.35;;;0.10;;
69542;SDS011;56762;49.494;11.768;2023-04-01T03:25:53;1.92;;;0.10;;
69542;SDS011;56762;49.494;11.768;2023-04-01T03:28:22;2.13;;;0.20;;
69542;SDS011;56762;49.494;11.768;2023-04-01T03:30:49;0.87;;;0.10;;
69542;SDS011;56762;49.494;11.768;2023-04-01T03:33:17;0.88;;;0.10;;
69542;SDS011;56762;49.494;11.768;2023-04-01T03:35:45;0.73;;;0.10;;
69542;SDS011;56762;49.494;11.768;2023-04-01T03:38:13;2.08;;;0.30;;
69542;SDS011;56762;49.494;11.768;2023-04-01T03:40:42;1.67;;;0.20;;
69542;SDS011;56762;49.494;11.768;2023-04-01T03:43:10;0.90;;;0.00;;
69542;SDS011;56762;49.494;11.768;2023-04-01T03:45:44;0.75;;;0.10;;
69542;SDS011;56762;49.494;11.768;2023-04-01T03:48:13;3.65;;;0.20;;
69542;SDS011;56762;49.494;11.768;2023-04-01T03:50:41;1.63;;;0.08;;
69542;SDS011;56762;49.494;11.768;2023-04-01T03:53:09;1.05;;;0.20;;
69542;SDS011;56762;49.494;11.768;2023-04-01T03:55:37;1.63;;;0.00;;
69542;SDS011;56762;49.494;11.768;2023-04-01T03:58:06;0.95;;;0.17;;
69542;SDS011;56762;49.494;11.768;2023-04-01T04:00:35;3.47;;;0.20;;
69542;SDS011;56762;49.494;11.768;2023-04-01T04:03:05;1.15;;;0.05;;
69542;SDS011;56762;49.494;11.768;2023-04-01T04:05:33;1.65;;;0.08;;
69542;SDS011;56762;49.494;11.768;2023-04-01T04:08:01;1.90;;;0.20;;
69542;SDS011;56762;49.494;11.768;2023-04-01T04:10:30;1.05;;;0.00;;
69542;SDS011;56762;49.494;11.768;2023-04-01T04:12:57;2.33;;;0.20;;
69542;SDS011;56762;49.494;11.768;2023-04-01T04:15:26;1.73;;;0.10;;
69542;SDS011;56762;49.494;11.768;2023-04-01T04:17:54;1.55;;;0.20;;
69542;SDS011;56762;49.494;11.768;2023-04-01T04:20:23;2.03;;;0.00;;
69542;SDS011;56762;49.494;11.768;2023-04-01T04:22:51;1.90;;;0.10;;
69542;SDS011;56762;49.494;11.768;2023-04-01T04:25:18;3.40;;;0.40;;
69542;SDS011;56762;49.494;11.768;2023-04-01T04:27:46;2.42;;;0.28;;
69542;SDS011;56762;49.494;11.768;2023-04-01T04:30:16;0.73;;;0.00;;
69542;SDS011;56762;49.494;11.768;2023-04-01T04:32:44;0.87;;;0.00;;
69542;SDS011;56762;49.494;11.768;2023-04-01T04:35:12;1.88;;;0.40;;
69542;SDS011;56762;49.494;11.768;2023-04-01T04:37:41;2.00;;;0.15;;
69542;SDS011;56762;49.494;11.768;2023-04-01T04:40:09;2.95;;;0.10;;
69542;SDS011;56762;49.494;11.768;2023-04-01T04:42:37;1.90;;;0.10;;
69542;SDS011;56762;49.494;11.768;2023-04-01T04:45:05;3.33;;;0.10;;
69542;SDS011;56762;49.494;11.768;2023-04-01T04:47:33;0.75;;;0.00;;
69542;SDS011;56762;49.494;11.768;2023-04-01T04:50:02;1.25;;;0.10;;
69542;SDS011;56762;49.494;11.768;2023-04-01T04:52:30;2.40;;;0.20;;
69542;SDS011;56762;49.494;11.768;2023-04-01T04:54:59;0.88;;;0.00;;
69542;SDS011;56762;49.494;11.768;2023-04-01T04:57:27;2.80;;;0.20;;
69542;SDS011;56762;49.494;11.768;2023-04-01T04:59:55;2.92;;;0.30;;
69542;SDS011;56762;49.494;11.768;2023-04-01T05:02:23;1.10;;;0.25;;
69542;SDS011;56762;49.494;11.768;2023-04-01T05:04:51;2.28;;;0.10;;
69542;SDS011;56762;49.494;11.768;2023-04-01T05:07:19;0.70;;;0.10;;
69542;SDS011;56762;49.494;11.768;2023-04-01T05:09:47;0.60;;;0.00;;
69542;SDS011;56762;49.494;11.768;2023-04-01T05:12:16;1.48;;;0.10;;
69542;SDS011;56762;49.494;11.768;2023-04-01T05:14:44;3.83;;;0.35;;
69542;SDS011;56762;49.494;11.768;2023-04-01T05:17:12;2.22;;;0.10;;
69542;SDS011;56762;49.494;11.768;2023-04-01T05:19:40;4.03;;;0.20;;
69542;SDS011;56762;49.494;11.768;2023-04-01T05:22:08;2.40;;;0.20;;
69542;SDS011;56762;49.494;11.768;2023-04-01T05:24:36;2.97;;;0.10;;
69542;SDS011;56762;49.494;11.768;2023-04-01T05:27:04;2.35;;;0.20;;
69542;SDS011;56762;49.494;11.768;2023-04-01T05:29:33;1.92;;;0.10;;
69542;SDS011;56762;49.494;11.768;2023-04-01T05:32:01;1.05;;;0.08;;
69542;SDS011;56762;49.494;11.768;2023-04-01T05:34:29;0.33;;;0.00;;
69542;SDS011;56762;49.494;11.768;2023-04-01T05:36:58;0.88;;;0.10;;
69542;SDS011;56762;49.494;11.768;2023-04-01T05:39:25;1.75;;;0.40;;
69542;SDS011;56762;49.494;11.768;2023-04-01T05:41:53;1.77;;;0.20;;
69542;SDS011;56762;49.494;11.768;2023-04-01T05:44:21;2.78;;;0.20;;
69542;SDS011;56762;49.494;11.768;2023-04-01T05:46:50;2.53;;;0.20;;
69542;SDS011;56762;49.494;11.768;2023-04-01T05:49:18;2.97;;;0.22;;
69542;SDS011;56762;49.494;11.768;2023-04-01T05:51:46;1.17;;;0.20;;
69542;SDS011;56762;49.494;11.768;2023-04-01T05:54:14;2.55;;;0.30;;
69542;SDS011;56762;49.494;11.768;2023-04-01T05:56:42;2.33;;;0.40;;
69542;SDS011;56762;49.494;11.768;2023-04-01T05:59:12;2.57;;;0.20;;
69542;SDS011;56762;49.494;11.768;2023-04-01T06:01:40;1.73;;;0.30;;
69542;SDS011;56762;49.494;11.768;2023-04-01T06:04:11;2.38;;;0.45;;
69542;SDS011;56762;49.494;11.768;2023-04-01T06:06:41;2.28;;;0.60;;
69542;SDS011;56762;49.494;11.768;2023-04-01T06:09:12;2.10;;;0.30;;
69542;SDS011;56762;49.494;11.768;2023-04-01T06:11:45;1.73;;;0.53;;
69542;SDS011;56762;49.494;11.768;2023-04-01T06:14:31;2.45;;;0.30;;
69542;SDS011;56762;49.494;11.768;2023-04-01T06:17:10;2.88;;;0.70;;
69542;SDS011;56762;49.494;11.768;2023-04-01T06:19:54;1.48;;;0.10;;
69542;SDS011;56762;49.494;11.768;2023-04-01T06:28:33;1.38;;;0.15;;
69542;SDS011;56762;49.494;11.768;2023-04-01T06:31:17;0.93;;;0.20;;
69542;SDS011;56762;49.494;11.768;2023-04-01T06:33:58;2.22;;;0.60;;
69542;SDS011;56762;49.494;11.768;2023-04-01T06:39:59;0.75;;;0.20;;
69542;SDS011;56762;49.494;11.768;2023-04-01T06:43:01;1.67;;;0.25;;
69542;SDS011;56762;49.494;11.768;2023-04-01T06:45:38;1.87;;;0.20;;
69542;SDS011;56762;49.494;11.768;2023-04-01T06:48:29;1.20;;;0.10;;
69542;SDS011;56762;49.494;11.768;2023-04-01T06:51:10;1.20;;;0.20;;
69542;SDS011;56762;49.494;11.768;2023-04-01T06:53:49;1.45;;;0.17;;
69542;SDS011;56762;49.494;11.768;2023-04-01T06:56:24;1.17;;;0.10;;
69542;SDS011;56762;49.494;11.768;2023-04-01T06:58:55;1.40;;;0.23;;
69542;SDS011;56762;49.494;11.768;2023-04-01T07:01:28;1.00;;;0.10;;
69542;SDS011;56762;49.494;11.768;2023-04-01T07:04:02;1.90;;;0.10;;
69542;SDS011;56762;49.494;11.768;2023-04-01T07:06:35;3.35;;;0.40;;
69542;SDS011;56762;49.494;11.768;2023-04-01T07:09:06;3.17;;;0.60;;
69542;SDS011;56762;49.494;11.768;2023-04-01T07:11:40;3.80;;;0.20;;
69542;SDS011;56762;49.494;11.768;2023-04-01T07:14:10;2.58;;;0.17;;
69542;SDS011;56762;49.494;11.768;2023-04-01T07:16:47;2.10;;;0.22;;
69542;SDS011;56762;49.494;11.768;2023-04-01T07:19:20;1.70;;;0.20;;
69542;SDS011;56762;49.494;11.768;2023-04-01T07:21:56;1.05;;;0.25;;
69542;SDS011;56762;49.494;11.768;2023-04-01T07:24:29;2.57;;;0.30;;
69542;SDS011;56762;49.494;11.768;2023-04-01T07:27:02;2.25;;;0.30;;
69542;SDS011;56762;49.494;11.768;2023-04-01T07:29:33;0.93;;;0.20;;
69542;SDS011;56762;49.494;11.768;2023-04-01T07:35:09;3.40;;;0.50;;
69542;SDS011;56762;49.494;11.768;2023-04-01T07:37:49;0.70;;;0.07;;
69542;SDS011;56762;49.494;11.768;2023-04-01T07:40:28;1.17;;;0.10;;
69542;SDS011;56762;49.494;11.768;2023-04-01T07:43:12;3.40;;;0.10;;
69542;SDS011;56762;49.494;11.768;2023-04-01T07:45:49;1.10;;;0.10;;
69542;SDS011;56762;49.494;11.768;2023-04-01T07:48:26;3.58;;;0.40;;
69542;SDS011;56762;49.494;11.768;2023-04-01T07:51:00;1.20;;;0.20;;
69542;SDS011;56762;49.494;11.768;2023-04-01T07:53:31;0.50;;;0.00;;
69542;SDS011;56762;49.494;11.768;2023-04-01T07:56:05;2.45;;;0.15;;
69542;SDS011;56762;49.494;11.768;2023-04-01T07:58:42;0.80;;;0.10;;
69542;SDS011;56762;49.494;11.768;2023-04-01T08:01:18;3.95;;;0.20;;
69542;SDS011;56762;49.494;11.768;2023-04-01T08:03:56;1.13;;;0.30;;
69542;SDS011;56762;49.494;11.768;2023-04-01T08:06:40;4.35;;;1.15;;
69542;SDS011;56762;49.494;11.768;2023-04-01T08:09:15;1.33;;;0.35;;
69542;SDS011;56762;49.494;11.768;2023-04-01T08:11:54;0.98;;;0.15;;
69542;SDS011;56762;49.494;11.768;2023-04-01T08:14:34;0.60;;;0.10;;
69542;SDS011;56762;49.494;11.768;2023-04-01T08:17:09;1.17;;;0.10;;
69542;SDS011;56762;49.494;11.768;2023-04-01T08:19:47;1.35;;;0.10;;
69542;SDS011;56762;49.494;11.768;2023-04-01T08:22:23;1.50;;;0.30;;
69542;SDS011;56762;49.494;11.768;2023-04-01T08:24:55;3.80;;;1.38;;
69542;SDS011;56762;49.494;11.768;2023-04-01T08:27:31;2.28;;;0.60;;
69542;SDS011;56762;49.494;11.768;2023-04-01T08:30:15;2.13;;;0.40;;
69542;SDS011;56762;49.494;11.768;2023-04-01T08:32:48;3.65;;;0.57;;
69542;SDS011;56762;49.494;11.768;2023-04-01T08:35:21;7.35;;;1.70;;
69542;SDS011;56762;49.494;11.768;2023-04-01T08:38:00;3.17;;;0.93;;
69542;SDS011;56762;49.494;11.768;2023-04-01T08:40:37;6.07;;;0.70;;
69542;SDS011;56762;49.494;11.768;2023-04-01T08:43:15;6.03;;;1.37;;
69542;SDS011;56762;49.494;11.768;2023-04-01T08:45:59;3.17;;;1.10;;
69542;SDS011;56762;49.494;11.768;2023-04-01T08:48:57;2.85;;;0.90;;
69542;SDS011;56762;49.494;11.768;2023-04-01T08:51:42;1.80;;;0.52;;
69542;SDS011;56762;49.494;11.768;2023-04-01T08:54:37;2.13;;;0.73;;
69542;SDS011;56762;49.494;11.768;2023-04-01T08:57:39;4.17;;;0.80;;
69542;SDS011;56762;49.494;11.768;2023-04-01T09:00:19;1.73;;;0.38;;
69542;SDS011;56762;49.494;11.768;2023-04-01T09:06:01;2.53;;;0.43;;
69542;SDS011;56762;49.494;11.768;2023-04-01T09:08:44;2.42;;;0.60;;
69542;SDS011;56762;49.494;11.768;2023-04-01T09:11:28;1.00;;;0.20;;
69542;SDS011;56762;49.494;11.768;2023-04-01T09:14:17;0.93;;;0.30;;
69542;SDS011;56762;49.494;11.768;2023-04-01T09:17:13;1.83;;;0.52;;
69542;SDS011;56762;49.494;11.768;2023-04-01T09:20:14;1.15;;;0.25;;
69542;SDS011;56762;49.494;11.768;2023-04-01T09:23:00;2.35;;;0.30;;
69542;SDS011;56762;49.494;11.768;2023-04-01T09:25:41;0.93;;;0.20;;
69542;SDS011;56762;49.494;11.768;2023-04-01T09:28:17;1.35;;;0.20;;
69542;SDS011;56762;49.494;11.768;2023-04-01T09:30:50;2.55;;;0.40;;
69542;SDS011;56762;49.494;11.768;2023-04-01T09:36:45;4.20;;;0.75;;
69542;SDS011;56762;49.494;11.768;2023-04-01T09:39:33;2.80;;;0.90;;
69542;SDS011;56762;49.494;11.768;2023-04-01T09:42:25;3.78;;;0.80;;
69542;SDS011;56762;49.494;11.768;2023-04-01T09:45:05;3.80;;;0.50;;
69542;SDS011;56762;49.494;11.768;2023-04-01T09:47:42;2.33;;;0.40;;
69542;SDS011;56762;49.494;11.768;2023-04-01T09:50:28;5.55;;;0.50;;
69542;SDS011;56762;49.494;11.768;2023-04-01T09:56:18;4.55;;;1.00;;
69542;SDS011;56762;49.494;11.768;2023-04-01T10:08:45;2.83;;;0.50;;
69542;SDS011;56762;49.494;11.768;2023-04-01T10:11:52;3.38;;;0.50;;
69542;SDS011;56762;49.494;11.768;2023-04-01T10:17:53;4.28;;;0.70;;
69542;SDS011;56762;49.494;11.768;2023-04-01T10:20:56;1.90;;;0.45;;
69542;SDS011;56762;49.494;11.768;2023-04-01T10:26:42;2.25;;;0.30;;
69542;SDS011;56762;49.494;11.768;2023-04-01T10:32:21;2.22;;;0.45;;
69542;SDS011;56762;49.494;11.768;2023-04-01T10:35:10;2.03;;;0.25;;
69542;SDS011;56762;49.494;11.768;2023-04-01T10:38:01;3.97;;;1.90;;
69542;SDS011;56762;49.494;11.768;2023-04-01T10:40:58;1.75;;;0.30;;
69542;SDS011;56762;49.494;11.768;2023-04-01T10:47:11;1.55;;;0.30;;
69542;SDS011;56762;49.494;11.768;2023-04-01T10:53:07;1.27;;;0.20;;
69542;SDS011;56762;49.494;11.768;2023-04-01T10:56:10;1.35;;;0.30;;
69542;SDS011;56762;49.494;11.768;2023-04-01T11:05:35;1.73;;;0.38;;
69542;SDS011;56762;49.494;11.768;2023-04-01T11:08:28;1.53;;;0.20;;
69542;SDS011;56762;49.494;11.768;2023-04-01T11:20:40;1.42;;;0.40;;
69542;SDS011;56762;49.494;11.768;2023-04-01T11:23:44;1.00;;;0.10;;
69542;SDS011;56762;49.494;11.768;2023-04-01T11:26:32;1.50;;;0.10;;
69542;SDS011;56762;49.494;11.768;2023-04-01T11:32:02;2.78;;;0.80;;
69542;SDS011;56762;49.494;11.768;2023-04-01T11:34:46;1.80;;;0.22;;
69542;SDS011;56762;49.494;11.768;2023-04-01T11:37:25;0.80;;;0.10;;
69542;SDS011;56762;49.494;11.768;2023-04-01T11:40:03;3.22;;;0.70;;
69542;SDS011;56762;49.494;11.768;2023-04-01T11:42:40;1.75;;;0.20;;
69542;SDS011;56762;49.494;11.768;2023-04-01T11:45:17;0.73;;;0.20;;
69542;SDS011;56762;49.494;11.768;2023-04-01T11:47:54;1.83;;;0.30;;
69542;SDS011;56762;49.494;11.768;2023-04-01T11:50:42;1.17;;;0.20;;
69542;SDS011;56762;49.494;11.768;2023-04-01T11:53:23;1.70;;;0.20;;
69542;SDS011;56762;49.494;11.768;2023-04-01T11:56:02;1.88;;;0.50;;
69542;SDS011;56762;49.494;11.768;2023-04-01T11:58:46;0.50;;;0.10;;
69542;SDS011;56762;49.494;11.768;2023-04-01T12:01:48;0.95;;;0.20;;
69542;SDS011;56762;49.494;11.768;2023-04-01T12:04:35;0.97;;;0.20;;
69542;SDS011;56762;49.494;11.768;2023-04-01T12:07:17;1.52;;;0.30;;
69542;SDS011;56762;49.494;11.768;2023-04-01T12:09:52;1.95;;;0.57;;
69542;SDS011;56762;49.494;11.768;2023-04-01T12:12:32;2.13;;;0.25;;
69542;SDS011;56762;49.494;11.768;2023-04-01T12:15:27;0.73;;;0.10;;
69542;SDS011;56762;49.494;11.768;2023-04-01T12:18:05;0.93;;;0.10;;
69542;SDS011;56762;49.494;11.768;2023-04-01T12:20:42;1.20;;;0.20;;
69542;SDS011;56762;49.494;11.768;2023-04-01T12:23:28;1.25;;;0.30;;
69542;SDS011;56762;49.494;11.768;2023-04-01T12:26:13;1.48;;;0.20;;
69542;SDS011;56762;49.494;11.768;2023-04-01T12:28:59;0.45;;;0.10;;
69542;SDS011;56762;49.494;11.768;2023-04-01T12:31:42;1.33;;;0.10;;
69542;SDS011;56762;49.494;11.768;2023-04-01T12:34:28;0.45;;;0.13;;
69542;SDS011;56762;49.494;11.768;2023-04-01T12:37:16;0.40;;;0.10;;
69542;SDS011;56762;49.494;11.768;2023-04-01T12:39:51;1.17;;;0.40;;
69542;SDS011;56762;49.494;11.768;2023-04-01T12:42:38;0.63;;;0.10;;
69542;SDS011;56762;49.494;11.768;2023-04-01T12:45:23;1.60;;;0.20;;
69542;SDS011;56762;49.494;11.768;2023-04-01T12:48:09;1.40;;;0.28;;
69542;SDS011;56762;49.494;11.768;2023-04-01T12:51:00;2.78;;;0.40;;
69542;SDS011;56762;49.494;11.768;2023-04-01T12:53:47;2.88;;;0.55;;
69542;SDS011;56762;49.494;11.768;2023-04-01T12:56:36;1.98;;;0.32;;
69542;SDS011;56762;49.494;11.768;2023-04-01T13:02:13;2.22;;;0.30;;
69542;SDS011;56762;49.494;11.768;2023-04-01T13:04:56;1.27;;;0.30;;
69542;SDS011;56762;49.494;11.768;2023-04-01T13:10:44;3.25;;;1.00;;
69542;SDS011;56762;49.494;11.768;2023-04-01T13:13:32;2.70;;;0.65;;
69542;SDS011;56762;49.494;11.768;2023-04-01T13:16:11;1.63;;;0.30;;
69542;SDS011;56762;49.494;11.768;2023-04-01T13:18:45;2.40;;;0.30;;
69542;SDS011;56762;49.494;11.768;2023-04-01T13:21:27;2.03;;;0.30;;
69542;SDS011;56762;49.494;11.768;2023-04-01T13:24:02;2.03;;;0.35;;
69542;SDS011;56762;49.494;11.768;2023-04-01T13:26:40;4.13;;;0.80;;
69542;SDS011;56762;49.494;11.768;2023-04-01T13:29:21;1.67;;;0.20;;
69542;SDS011;56762;49.494;11.768;2023-04-01T13:32:01;3.33;;;0.77;;
69542;SDS011;56762;49.494;11.768;2023-04-01T13:34:54;3.13;;;0.77;;
69542;SDS011;56762;49.494;11.768;2023-04-01T13:37:41;2.35;;;0.50;;
69542;SDS011;56762;49.494;11.768;2023-04-01T13:43:29;2.22;;;0.35;;
69542;SDS011;56762;49.494;11.768;2023-04-01T13:46:07;2.60;;;0.57;;
69542;SDS011;56762;49.494;11.768;2023-04-01T13:51:54;3.10;;;0.85;;
69542;SDS011;56762;49.494;11.768;2023-04-01T13:57:31;5.63;;;1.65;;
69542;SDS011;56762;49.494;11.768;2023-04-01T14:00:18;2.97;;;0.43;;
69542;SDS011;56762;49.494;11.768;2023-04-01T14:02:55;2.87;;;0.97;;
69542;SDS011;56762;49.494;11.768;2023-04-01T14:05:42;1.92;;;0.50;;
69542;SDS011;56762;49.494;11.768;2023-04-01T14:08:26;3.55;;;1.23;;
69542;SDS011;56762;49.494;11.768;2023-04-01T14:11:03;3.03;;;1.00;;
69542;SDS011;56762;49.494;11.768;2023-04-01T14:13:43;3.35;;;1.38;;
69542;SDS011;56762;49.494;11.768;2023-04-01T14:16:30;5.97;;;1.77;;
69542;SDS011;56762;49.494;11.768;2023-04-01T14:19:18;5.38;;;1.95;;
69542;SDS011;56762;49.494;11.768;2023-04-01T14:21:58;2.60;;;0.65;;
69542;SDS011;56762;49.494;11.768;2023-04-01T14:24:36;2.17;;;0.85;;
69542;SDS011;56762;49.494;11.768;2023-04-01T14:27:21;2.75;;;0.90;;
69542;SDS011;56762;49.494;11.768;2023-04-01T14:30:15;3.77;;;1.83;;
69542;SDS011;56762;49.494;11.768;2023-04-01T14:32:58;1.48;;;0.32;;
69542;SDS011;56762;49.494;11.768;2023-04-01T14:35:33;2.15;;;0.35;;
69542;SDS011;56762;49.494;11.768;2023-04-01T14:38:18;3.55;;;1.00;;
69542;SDS011;56762;49.494;11.768;2023-04-01T14:40:56;3.42;;;1.50;;
69542;SDS011;56762;49.494;11.768;2023-04-01T14:43:40;2.80;;;1.40;;
69542;SDS011;56762;49.494;11.768;2023-04-01T14:49:29;1.45;;;0.40;;
69542;SDS011;56762;49.494;11.768;2023-04-01T14:52:04;0.70;;;0.20;;
69542;SDS011;56762;49.494;11.768;2023-04-01T14:54:37;1.02;;;0.30;;
69542;SDS011;56762;49.494;11.768;2023-04-01T14:57:10;2.43;;;1.20;;
69542;SDS011;56762;49.494;11.768;2023-04-01T14:59:40;1.52;;;0.60;;
69542;SDS011;56762;49.494;11.768;2023-04-01T15:02:22;1.88;;;0.68;;
69542;SDS011;56762;49.494;11.768;2023-04-01T15:05:05;2.72;;;1.15;;
69542;SDS011;56762;49.494;11.768;2023-04-01T15:07:49;1.90;;;0.35;;
69542;SDS011;56762;49.494;11.768;2023-04-01T15:10:40;2.00;;;0.60;;
69542;SDS011;56762;49.494;11.768;2023-04-01T15:13:19;3.83;;;1.10;;
69542;SDS011;56762;49.494;11.768;2023-04-01T15:16:01;2.95;;;1.38;;
69542;SDS011;56762;49.494;11.768;2023-04-01T15:18:40;3.05;;;1.30;;
69542;SDS011;56762;49.494;11.768;2023-04-01T15:21:31;3.53;;;1.27;;
69542;SDS011;56762;49.494;11.768;2023-04-01T15:24:14;2.20;;;0.50;;
69542;SDS011;56762;49.494;11.768;2023-04-01T15:29:47;4.75;;;1.25;;
69542;SDS011;56762;49.494;11.768;2023-04-01T15:32:29;4.97;;;2.10;;
69542;SDS011;56762;49.494;11.768;2023-04-01T15:35:12;2.90;;;0.95;;
69542;SDS011;56762;49.494;11.768;2023-04-01T15:37:51;3.77;;;0.80;;
69542;SDS011;56762;49.494;11.768;2023-04-01T15:40:22;2.47;;;1.00;;
69542;SDS011;56762;49.494;11.768;2023-04-01T15:42:58;2.58;;;0.73;;
69542;SDS011;56762;49.494;11.768;2023-04-01T15:45:38;2.88;;;0.90;;
69542;SDS011;56762;49.494;11.768;2023-04-01T15:48:20;4.13;;;1.00;;
69542;SDS011;56762;49.494;11.768;2023-04-01T15:50:59;2.20;;;1.00;;
69542;SDS011;56762;49.494;11.768;2023-04-01T15:53:53;3.30;;;1.10;;
69542;SDS011;56762;49.494;11.768;2023-04-01T15:56:28;3.85;;;0.63;;
69542;SDS011;56762;49.494;11.768;2023-04-01T15:59:14;4.50;;;1.80;;
69542;SDS011;56762;49.494;11.768;2023-04-01T16:01:51;3.97;;;1.80;;
69542;SDS011;56762;49.494;11.768;2023-04-01T16:04:31;6.63;;;2.70;;
69542;SDS011;56762;49.494;11.768;2023-04-01T16:07:10;6.40;;;2.47;;
69542;SDS011;56762;49.494;11.768;2023-04-01T16:09:56;6.72;;;2.50;;
69542;SDS011;56762;49.494;11.768;2023-04-01T16:12:37;6.20;;;2.38;;
69542;SDS011;56762;49.494;11.768;2023-04-01T16:15:19;5.70;;;1.90;;
69542;SDS011;56762;49.494;11.768;2023-04-01T16:18:03;4.00;;;2.20;;
69542;SDS011;56762;49.494;11.768;2023-04-01T16:20:57;2.45;;;0.80;;
69542;SDS011;56762;49.494;11.768;2023-04-01T16:23:35;5.30;;;2.10;;
69542;SDS011;56762;49.494;11.768;2023-04-01T16:26:09;5.45;;;2.90;;
69542;SDS011;56762;49.494;11.768;2023-04-01T16:28:48;3.95;;;2.13;;
69542;SDS011;56762;49.494;11.768;2023-04-01T16:31:29;3.90;;;1.67;;
69542;SDS011;56762;49.494;11.768;2023-04-01T16:34:03;3.13;;;1.23;;
69542;SDS011;56762;49.494;11.768;2023-04-01T16:36:41;2.05;;;0.55;;
69542;SDS011;56762;49.494;11.768;2023-04-01T16:39:20;2.33;;;0.77;;
69542;SDS011;56762;49.494;11.768;2023-04-01T16:42:05;3.22;;;1.23;;
69542;SDS011;56762;49.494;11.768;2023-04-01T16:44:52;1.23;;;0.40;;
69542;SDS011;56762;49.494;11.768;2023-04-01T16:47:23;3.03;;;1.40;;
69542;SDS011;56762;49.494;11.768;2023-04-01T16:49:58;3.60;;;0.68;;
69542;SDS011;56762;49.494;11.768;2023-04-01T16:52:42;2.88;;;1.60;;
69542;SDS011;56762;49.494;11.768;2023-04-01T16:55:33;2.13;;;0.55;;
69542;SDS011;56762;49.494;11.768;2023-04-01T16:58:05;2.30;;;0.50;;